Time;durP1;ratioP1;P1;durP2;ratioP2;P2;SDS_P1;SDS_P2;PMS_P1;PMS_P2;Temp;Humidity;BMP_temperature;BMP_pressure;BME280_temperature;BME280_humidity;BME280_pressure;Samples;Min_cycle;Max_cycle;Signal;HPM_P1;HPM_P2
2021/01/05 00:00:09;;;;;;;25.80;14.00;;;;;;;;;;5035291;28;20086;-68
2021/01/05 00:02:34;;;;;;;27.25;14.35;;;;;;;;;;5030467;28;20029;-67
2021/01/05 00:04:59;;;;;;;23.58;13.07;;;;;;;;;;5030562;28;20037;-67
2021/01/05 00:07:25;;;;;;;26.67;14.50;;;;;;;;;;5029293;28;20358;-68
2021/01/05 00:09:50;;;;;;;26.25;14.80;;;;;;;;;;5029144;28;20014;-68
2021/01/05 00:12:16;;;;;;;26.33;14.45;;;;;;;;;;5029775;28;20021;-68
2021/01/05 00:14:41;;;;;;;29.38;14.95;;;;;;;;;;5029134;28;20067;-68
2021/01/05 00:17:07;;;;;;;25.77;13.70;;;;;;;;;;5028939;28;20025;-67
2021/01/05 00:19:32;;;;;;;27.17;13.93;;;;;;;;;;5028491;28;20029;-67
2021/01/05 00:21:57;;;;;;;26.55;14.45;;;;;;;;;;5029161;28;20021;-67
2021/01/05 00:24:23;;;;;;;27.52;13.70;;;;;;;;;;5029958;28;20021;-67
2021/01/05 00:26:48;;;;;;;28.48;14.98;;;;;;;;;;5029587;28;20025;-67
2021/01/05 00:29:13;;;;;;;28.85;15.38;;;;;;;;;;5029599;28;20033;-67
2021/01/05 00:31:38;;;;;;;27.80;15.45;;;;;;;;;;5029360;28;20079;-67
2021/01/05 00:34:05;;;;;;;24.88;14.63;;;;;;;;;;5029688;28;20122;-67
2021/01/05 00:36:30;;;;;;;27.88;14.52;;;;;;;;;;5029272;28;20033;-67
2021/01/05 00:38:55;;;;;;;29.67;14.80;;;;;;;;;;5029700;28;20033;-67
2021/01/05 00:41:21;;;;;;;25.48;14.15;;;;;;;;;;5029085;28;20040;-67
2021/01/05 00:43:46;;;;;;;29.90;15.43;;;;;;;;;;5033084;28;20436;-68
2021/01/05 00:46:12;;;;;;;26.02;14.77;;;;;;;;;;5029791;28;20044;-68
2021/01/05 00:48:37;;;;;;;28.55;14.15;;;;;;;;;;5028793;28;20497;-67
2021/01/05 00:51:03;;;;;;;26.63;14.23;;;;;;;;;;5027849;28;20052;-67
2021/01/05 00:53:28;;;;;;;29.33;14.88;;;;;;;;;;5035611;28;20761;-67
2021/01/05 00:55:53;;;;;;;26.63;13.95;;;;;;;;;;5033060;28;20100;-67
2021/01/05 00:58:23;;;;;;;26.00;14.37;;;;;;;;;;5032433;28;20037;-67
2021/01/05 01:00:48;;;;;;;26.80;14.55;;;;;;;;;;5027967;28;20264;-67
2021/01/05 01:03:13;;;;;;;27.48;15.50;;;;;;;;;;5033303;28;20021;-67
2021/01/05 01:05:39;;;;;;;29.97;14.63;;;;;;;;;;5033088;28;20112;-67
2021/01/05 01:08:04;;;;;;;25.88;14.75;;;;;;;;;;5032516;28;20337;-67
2021/01/05 01:10:29;;;;;;;24.77;13.52;;;;;;;;;;5033158;28;20021;-67
2021/01/05 01:12:54;;;;;;;29.83;14.48;;;;;;;;;;5033232;28;20022;-67
2021/01/05 01:15:19;;;;;;;30.35;15.63;;;;;;;;;;5032988;28;20028;-68
2021/01/05 01:17:45;;;;;;;28.88;15.23;;;;;;;;;;5033060;28;20029;-68
2021/01/05 01:20:10;;;;;;;29.10;14.93;;;;;;;;;;5032455;28;20064;-68
2021/01/05 01:22:35;;;;;;;23.67;13.50;;;;;;;;;;5032816;28;20021;-68
2021/01/05 01:25:01;;;;;;;29.00;15.25;;;;;;;;;;5033335;28;20075;-68
2021/01/05 01:27:26;;;;;;;27.45;14.85;;;;;;;;;;5032698;28;20481;-68
2021/01/05 01:29:51;;;;;;;28.15;15.02;;;;;;;;;;5033098;28;20029;-68
2021/01/05 01:32:16;;;;;;;31.20;15.52;;;;;;;;;;5033484;28;20047;-67
2021/01/05 01:34:41;;;;;;;26.83;14.23;;;;;;;;;;5033005;28;20024;-67
2021/01/05 01:37:08;;;;;;;29.20;15.20;;;;;;;;;;5032154;28;20048;-67
2021/01/05 01:39:34;;;;;;;28.42;15.05;;;;;;;;;;5033196;28;20033;-68
2021/01/05 01:42:00;;;;;;;29.52;15.07;;;;;;;;;;5032583;28;20079;-68
2021/01/05 01:44:28;;;;;;;26.80;14.00;;;;;;;;;;5035779;28;20026;-68
2021/01/05 01:46:55;;;;;;;29.58;14.95;;;;;;;;;;5032552;28;20477;-67
2021/01/05 01:49:21;;;;;;;30.75;15.43;;;;;;;;;;5032176;28;20053;-67
2021/01/05 01:51:46;;;;;;;28.02;15.10;;;;;;;;;;5032019;28;20185;-67
2021/01/05 01:54:23;;;;;;;28.75;14.88;;;;;;;;;;5032312;28;20485;-67
2021/01/05 01:57:07;;;;;;;28.55;15.07;;;;;;;;;;5031790;28;20031;-68
2021/01/05 01:59:51;;;;;;;29.80;15.18;;;;;;;;;;5032061;28;20112;-68
2021/01/05 02:02:20;;;;;;;25.55;13.43;;;;;;;;;;5031375;28;20022;-68
2021/01/05 02:04:45;;;;;;;27.88;15.27;;;;;;;;;;5032488;28;20025;-68
2021/01/05 02:07:21;;;;;;;29.25;15.00;;;;;;;;;;5031612;28;20066;-68
2021/01/05 02:10:05;;;;;;;31.83;15.88;;;;;;;;;;5032254;28;20661;-68
2021/01/05 02:12:39;;;;;;;36.50;15.85;;;;;;;;;;5031333;28;20017;-67
2021/01/05 02:15:22;;;;;;;30.17;15.77;;;;;;;;;;5031943;28;20084;-68
2021/01/05 02:17:48;;;;;;;32.30;16.13;;;;;;;;;;5031396;28;20025;-68
2021/01/05 02:20:23;;;;;;;31.67;16.13;;;;;;;;;;5032171;28;20079;-68
2021/01/05 02:23:02;;;;;;;31.88;16.38;;;;;;;;;;5031643;28;20022;-68
2021/01/05 02:25:36;;;;;;;29.75;16.13;;;;;;;;;;5031842;28;20029;-68
2021/01/05 02:28:03;;;;;;;32.05;15.90;;;;;;;;;;5031225;28;20486;-68
2021/01/05 02:30:39;;;;;;;33.90;17.42;;;;;;;;;;5032190;28;20390;-68
2021/01/05 02:33:23;;;;;;;32.30;16.20;;;;;;;;;;5031997;28;20074;-68
2021/01/05 02:36:07;;;;;;;28.55;15.35;;;;;;;;;;5031786;28;20021;-68
2021/01/05 02:38:44;;;;;;;29.40;14.60;;;;;;;;;;5027453;28;20116;-67
2021/01/05 02:41:21;;;;;;;35.05;17.02;;;;;;;;;;5029087;28;20053;-68
2021/01/05 02:43:58;;;;;;;35.33;18.38;;;;;;;;;;5031649;28;20033;-68
2021/01/05 02:46:27;;;;;;;32.78;16.77;;;;;;;;;;5030841;28;20025;-68
2021/01/05 02:49:18;;;;;;;31.77;16.15;;;;;;;;;;5031028;28;20537;-68
2021/01/05 02:51:59;;;;;;;31.73;16.55;;;;;;;;;;5030970;28;20107;-67
2021/01/05 02:54:32;;;;;;;30.00;15.80;;;;;;;;;;5030865;28;20018;-68
2021/01/05 02:57:13;;;;;;;38.47;17.70;;;;;;;;;;5030725;28;20017;-68
2021/01/05 02:59:47;;;;;;;37.03;17.42;;;;;;;;;;5031125;28;20352;-68
2021/01/05 03:02:15;;;;;;;36.75;17.83;;;;;;;;;;5029809;28;20025;-68
2021/01/05 03:04:40;;;;;;;33.70;16.95;;;;;;;;;;5031426;28;20025;-67
2021/01/05 03:07:19;;;;;;;37.05;18.38;;;;;;;;;;5030614;28;20025;-67
2021/01/05 03:09:50;;;;;;;33.70;16.50;;;;;;;;;;5031467;28;20359;-68
2021/01/05 03:12:24;;;;;;;36.25;17.17;;;;;;;;;;5031268;28;20100;-68
2021/01/05 03:14:58;;;;;;;33.08;16.30;;;;;;;;;;5030045;28;20117;-68
2021/01/05 03:17:27;;;;;;;35.35;17.88;;;;;;;;;;5030254;28;20071;-68
2021/01/05 03:19:52;;;;;;;33.95;16.38;;;;;;;;;;5031193;28;20441;-68
2021/01/05 03:22:19;;;;;;;41.38;18.33;;;;;;;;;;5031097;28;20117;-68
2021/01/05 03:24:45;;;;;;;33.08;16.63;;;;;;;;;;5030984;28;20343;-67
2021/01/05 03:27:11;;;;;;;35.85;16.67;;;;;;;;;;5030450;28;20121;-68
2021/01/05 03:29:36;;;;;;;36.00;16.63;;;;;;;;;;5030695;28;20370;-68
2021/01/05 03:32:04;;;;;;;32.85;17.00;;;;;;;;;;5030911;28;20031;-68
2021/01/05 03:34:30;;;;;;;39.65;17.30;;;;;;;;;;5030331;28;20021;-67
2021/01/05 03:36:55;;;;;;;37.28;17.40;;;;;;;;;;5029909;28;20512;-67
2021/01/05 03:39:20;;;;;;;34.47;17.48;;;;;;;;;;5059649;22;20393;-64
2021/01/05 03:41:45;;;;;;;32.42;16.17;;;;;;;;;;5049836;28;20021;-64
2021/01/05 03:44:11;;;;;;;33.90;15.82;;;;;;;;;;5049284;28;20020;-64
2021/01/05 03:46:36;;;;;;;36.25;16.42;;;;;;;;;;5050156;28;20024;-64
2021/01/05 03:49:02;;;;;;;34.55;16.52;;;;;;;;;;5049850;28;20100;-64
2021/01/05 03:51:27;;;;;;;36.33;16.75;;;;;;;;;;5050194;28;20021;-63
2021/01/05 03:53:52;;;;;;;34.97;16.02;;;;;;;;;;5050438;28;20066;-63
2021/01/05 03:56:17;;;;;;;33.72;16.75;;;;;;;;;;5050410;28;20020;-64
2021/01/05 03:58:42;;;;;;;33.90;16.15;;;;;;;;;;5049414;28;20122;-64
2021/01/05 04:01:08;;;;;;;34.38;16.55;;;;;;;;;;5049539;28;20147;-64
2021/01/05 04:03:33;;;;;;;38.53;17.85;;;;;;;;;;5049717;28;20358;-64
2021/01/05 04:05:58;;;;;;;39.05;17.35;;;;;;;;;;5049706;28;20017;-64
2021/01/05 04:08:23;;;;;;;34.17;16.73;;;;;;;;;;5049558;28;20369;-63
2021/01/05 04:10:48;;;;;;;38.38;18.10;;;;;;;;;;5049186;28;20029;-63
2021/01/05 04:13:14;;;;;;;39.58;17.15;;;;;;;;;;5050017;28;20013;-63
2021/01/05 04:15:39;;;;;;;43.40;18.67;;;;;;;;;;5049750;28;20071;-64
2021/01/05 04:18:04;;;;;;;36.80;18.08;;;;;;;;;;5049392;28;20432;-63
2021/01/05 04:20:30;;;;;;;33.58;15.55;;;;;;;;;;5049320;28;20589;-64
2021/01/05 04:22:55;;;;;;;34.42;17.38;;;;;;;;;;5050011;28;20666;-63
2021/01/05 04:25:21;;;;;;;37.13;17.30;;;;;;;;;;5049240;28;20090;-64
2021/01/05 04:27:47;;;;;;;34.17;16.42;;;;;;;;;;5048711;28;20522;-64
2021/01/05 04:30:18;;;;;;;35.78;17.40;;;;;;;;;;5048506;28;20531;-63
2021/01/05 04:32:43;;;;;;;37.15;16.38;;;;;;;;;;5050105;28;20063;-63
2021/01/05 04:35:09;;;;;;;34.90;15.82;;;;;;;;;;5049878;28;20013;-63
2021/01/05 04:37:34;;;;;;;37.17;16.50;;;;;;;;;;5048729;28;20108;-63
2021/01/05 04:39:59;;;;;;;37.45;16.95;;;;;;;;;;5048505;28;20020;-63
2021/01/05 04:42:31;;;;;;;41.65;17.58;;;;;;;;;;5049276;28;20019;-64
2021/01/05 04:45:04;;;;;;;34.33;16.73;;;;;;;;;;5049291;28;20013;-64
2021/01/05 04:47:37;;;;;;;35.10;16.58;;;;;;;;;;5044666;28;20018;-64
2021/01/05 04:50:05;;;;;;;36.42;16.95;;;;;;;;;;5047115;28;20021;-63
2021/01/05 04:52:38;;;;;;;36.15;17.42;;;;;;;;;;5049286;28;20049;-63
2021/01/05 04:55:06;;;;;;;36.10;15.25;;;;;;;;;;5048578;28;20385;-63
2021/01/05 04:57:33;;;;;;;38.67;16.67;;;;;;;;;;5048372;28;20070;-64
2021/01/05 05:00:07;;;;;;;35.13;16.52;;;;;;;;;;5049410;28;20053;-64
2021/01/05 05:02:46;;;;;;;34.28;15.75;;;;;;;;;;5048975;28;20055;-64
2021/01/05 05:05:24;;;;;;;35.17;16.85;;;;;;;;;;5049182;28;20099;-64
2021/01/05 05:08:07;;;;;;;39.03;17.77;;;;;;;;;;5045690;28;20025;-64
2021/01/05 05:10:53;;;;;;;33.65;16.65;;;;;;;;;;5048013;28;20009;-64
2021/01/05 05:13:37;;;;;;;40.47;16.85;;;;;;;;;;5034767;28;20072;-64
2021/01/05 05:16:02;;;;;;;35.95;16.52;;;;;;;;;;5049249;28;20044;-64
2021/01/05 05:18:30;;;;;;;37.80;15.67;;;;;;;;;;5048747;28;20479;-64
2021/01/05 05:20:58;;;;;;;36.67;17.25;;;;;;;;;;5048277;28;20271;-64
2021/01/05 05:23:26;;;;;;;37.85;16.67;;;;;;;;;;5049170;28;20025;-64
2021/01/05 05:26:10;;;;;;;38.20;17.55;;;;;;;;;;5048818;28;20025;-64
2021/01/05 05:28:42;;;;;;;37.78;17.00;;;;;;;;;;5047731;28;20029;-64
2021/01/05 05:31:11;;;;;;;41.97;16.77;;;;;;;;;;5048864;28;20019;-64
2021/01/05 05:33:38;;;;;;;35.55;16.33;;;;;;;;;;5044662;28;20021;-64
2021/01/05 05:36:03;;;;;;;39.90;18.02;;;;;;;;;;5049114;28;20052;-64
2021/01/05 05:38:40;;;;;;;37.17;17.20;;;;;;;;;;5048638;28;20044;-64
2021/01/05 05:41:16;;;;;;;39.65;18.00;;;;;;;;;;5052829;28;20298;-64
2021/01/05 05:44:00;;;;;;;33.03;16.77;;;;;;;;;;5052674;28;20041;-64
2021/01/05 05:46:32;;;;;;;40.05;16.23;;;;;;;;;;5050968;28;20052;-63
2021/01/05 05:49:04;;;;;;;42.05;17.55;;;;;;;;;;5051547;28;20024;-63
2021/01/05 05:51:30;;;;;;;36.75;17.55;;;;;;;;;;5052391;28;20017;-63
2021/01/05 05:54:02;;;;;;;41.50;16.77;;;;;;;;;;5052148;28;20503;-64
2021/01/05 05:56:33;;;;;;;40.85;17.63;;;;;;;;;;5052340;28;20420;-65
2021/01/05 05:58:59;;;;;;;35.55;16.88;;;;;;;;;;5050950;28;20017;-64
2021/01/05 06:01:30;;;;;;;39.17;18.00;;;;;;;;;;5049611;28;20029;-64
2021/01/05 06:03:58;;;;;;;45.05;17.92;;;;;;;;;;5054596;28;20021;-62
2021/01/05 06:06:24;;;;;;;42.50;19.98;;;;;;;;;;5049200;28;20028;-63
2021/01/05 06:08:49;;;;;;;38.60;17.67;;;;;;;;;;5050279;28;20039;-63
2021/01/05 06:11:14;;;;;;;39.53;18.42;;;;;;;;;;5050616;28;20029;-63
2021/01/05 06:13:40;;;;;;;37.85;17.27;;;;;;;;;;5049580;28;20494;-64
2021/01/05 06:16:05;;;;;;;38.13;17.33;;;;;;;;;;5050233;28;20009;-63
2021/01/05 06:18:30;;;;;;;34.72;16.40;;;;;;;;;;5049551;28;20025;-64
2021/01/05 06:20:55;;;;;;;36.50;16.80;;;;;;;;;;5050528;28;20033;-64
2021/01/05 06:23:20;;;;;;;37.92;17.60;;;;;;;;;;5050523;28;20025;-64
2021/01/05 06:25:46;;;;;;;45.20;18.77;;;;;;;;;;5050390;28;20112;-64
2021/01/05 06:28:11;;;;;;;36.88;16.60;;;;;;;;;;5048910;28;20032;-64
2021/01/05 06:30:37;;;;;;;36.95;18.05;;;;;;;;;;5049733;28;20071;-64
2021/01/05 06:33:02;;;;;;;42.58;17.60;;;;;;;;;;5049585;28;20063;-64
2021/01/05 06:35:27;;;;;;;34.40;16.40;;;;;;;;;;5049937;28;20496;-65
2021/01/05 06:37:52;;;;;;;36.20;18.35;;;;;;;;;;5049278;28;20469;-65
2021/01/05 06:40:20;;;;;;;39.83;17.80;;;;;;;;;;5049410;28;20056;-64
2021/01/05 06:42:45;;;;;;;40.38;18.25;;;;;;;;;;5050271;28;20056;-65
2021/01/05 06:45:14;;;;;;;38.75;17.80;;;;;;;;;;5050230;28;20421;-65
2021/01/05 06:47:39;;;;;;;36.47;18.08;;;;;;;;;;5048730;28;20486;-65
2021/01/05 06:50:04;;;;;;;37.20;16.63;;;;;;;;;;5049498;28;20036;-65
2021/01/05 06:52:29;;;;;;;39.42;18.15;;;;;;;;;;5049804;28;20021;-65
2021/01/05 06:54:55;;;;;;;38.85;17.73;;;;;;;;;;5054743;28;20096;-64
2021/01/05 06:57:20;;;;;;;35.75;16.77;;;;;;;;;;5052699;28;20035;-65
2021/01/05 06:59:45;;;;;;;32.88;16.13;;;;;;;;;;5051989;28;20024;-65
2021/01/05 07:02:11;;;;;;;37.92;18.27;;;;;;;;;;5050372;28;20485;-65
2021/01/05 07:04:36;;;;;;;44.40;18.58;;;;;;;;;;5051154;28;20397;-65
2021/01/05 07:07:02;;;;;;;39.85;15.75;;;;;;;;;;5050361;28;20073;-65
2021/01/05 07:09:27;;;;;;;36.13;17.15;;;;;;;;;;5051032;28;20082;-65
2021/01/05 07:11:53;;;;;;;46.25;17.63;;;;;;;;;;5051296;28;20013;-65
2021/01/05 07:14:21;;;;;;;36.67;16.75;;;;;;;;;;5049838;28;20508;-65
2021/01/05 07:16:46;;;;;;;37.15;17.17;;;;;;;;;;5048953;28;20021;-65
2021/01/05 07:19:11;;;;;;;36.28;16.33;;;;;;;;;;5049583;28;20021;-65
2021/01/05 07:21:37;;;;;;;36.70;17.52;;;;;;;;;;5050854;28;20021;-65
2021/01/05 07:24:02;;;;;;;38.95;18.08;;;;;;;;;;5048514;28;20029;-65
2021/01/05 07:26:27;;;;;;;44.05;18.95;;;;;;;;;;5050823;28;20060;-65
2021/01/05 07:28:53;;;;;;;41.22;18.25;;;;;;;;;;5049945;28;20027;-65
2021/01/05 07:31:18;;;;;;;42.80;17.67;;;;;;;;;;5048846;28;20535;-65
2021/01/05 07:33:43;;;;;;;39.10;18.58;;;;;;;;;;5053157;28;20025;-65
2021/01/05 07:36:29;;;;;;;40.45;18.33;;;;;;;;;;5050372;28;20370;-65
2021/01/05 07:38:54;;;;;;;39.42;16.25;;;;;;;;;;5049259;28;20044;-65
2021/01/05 07:41:19;;;;;;;36.55;17.52;;;;;;;;;;5048869;28;20030;-65
2021/01/05 07:43:45;;;;;;;41.25;17.27;;;;;;;;;;5050567;28;20131;-65
2021/01/05 07:46:10;;;;;;;40.00;18.42;;;;;;;;;;5048874;28;20040;-64
2021/01/05 07:48:35;;;;;;;38.78;17.70;;;;;;;;;;5049506;28;20029;-64
2021/01/05 07:51:00;;;;;;;40.85;18.77;;;;;;;;;;5049230;28;20013;-64
2021/01/05 07:53:26;;;;;;;41.50;17.58;;;;;;;;;;5049222;28;20028;-64
2021/01/05 07:55:51;;;;;;;36.97;17.52;;;;;;;;;;5049603;28;20496;-65
2021/01/05 07:58:16;;;;;;;38.55;17.98;;;;;;;;;;5050443;28;20029;-65
2021/01/05 08:00:41;;;;;;;35.63;15.82;;;;;;;;;;5047262;28;20389;-65
2021/01/05 08:03:09;;;;;;;39.05;18.05;;;;;;;;;;5048495;28;20024;-65
2021/01/05 08:05:35;;;;;;;36.45;16.10;;;;;;;;;;5049799;28;20024;-65
2021/01/05 08:08:00;;;;;;;39.08;16.67;;;;;;;;;;5049450;28;20032;-63
2021/01/05 08:10:27;;;;;;;31.10;14.15;;;;;;;;;;5058820;28;20508;-63
2021/01/05 08:12:52;;;;;;;40.17;17.27;;;;;;;;;;5058081;28;20641;-65
2021/01/05 08:15:21;;;;;;;35.30;15.77;;;;;;;;;;5049464;28;20025;-65
2021/01/05 08:17:47;;;;;;;37.20;16.50;;;;;;;;;;5045730;28;20492;-65
2021/01/05 08:20:16;;;;;;;33.78;16.17;;;;;;;;;;5049815;28;20020;-65
2021/01/05 08:22:41;;;;;;;32.72;14.95;;;;;;;;;;5048235;28;20028;-64
2021/01/05 08:25:07;;;;;;;37.00;15.23;;;;;;;;;;5050389;28;20104;-65
2021/01/05 08:27:32;;;;;;;42.10;16.67;;;;;;;;;;5049376;28;20036;-64
2021/01/05 08:29:57;;;;;;;33.25;14.73;;;;;;;;;;5050046;28;20029;-65
2021/01/05 08:32:23;;;;;;;29.30;14.23;;;;;;;;;;5049139;28;20051;-65
2021/01/05 08:34:48;;;;;;;33.17;16.35;;;;;;;;;;5048614;28;20100;-65
2021/01/05 08:37:13;;;;;;;31.58;14.07;;;;;;;;;;5049070;28;20485;-65
2021/01/05 08:39:39;;;;;;;31.50;14.95;;;;;;;;;;5050137;28;20033;-65
2021/01/05 08:42:04;;;;;;;33.40;14.30;;;;;;;;;;5049958;28;20029;-65
2021/01/05 08:44:29;;;;;;;36.13;15.63;;;;;;;;;;5049300;28;20021;-65
2021/01/05 08:47:01;;;;;;;31.95;13.85;;;;;;;;;;5049720;28;20042;-64
2021/01/05 08:49:27;;;;;;;37.30;16.77;;;;;;;;;;5061801;28;20025;-65
2021/01/05 08:51:53;;;;;;;36.88;16.02;;;;;;;;;;5046780;28;20537;-64
2021/01/05 08:54:18;;;;;;;37.63;16.15;;;;;;;;;;5049189;28;20124;-63
2021/01/05 08:56:43;;;;;;;33.45;14.80;;;;;;;;;;5049521;28;20485;-64
2021/01/05 08:59:08;;;;;;;36.22;16.02;;;;;;;;;;5049865;28;20042;-64
2021/01/05 09:01:34;;;;;;;35.22;15.85;;;;;;;;;;5049213;28;20496;-65
2021/01/05 09:03:59;;;;;;;31.35;14.00;;;;;;;;;;5049157;28;20497;-64
2021/01/05 09:06:25;;;;;;;33.88;16.15;;;;;;;;;;5049729;28;20021;-65
2021/01/05 09:08:51;;;;;;;36.13;15.80;;;;;;;;;;5049207;28;20559;-65
2021/01/05 09:11:21;;;;;;;38.67;16.90;;;;;;;;;;5049982;28;20025;-65
2021/01/05 09:13:46;;;;;;;35.78;15.30;;;;;;;;;;5052394;28;20456;-65
2021/01/05 09:16:17;;;;;;;34.33;15.52;;;;;;;;;;5053317;28;20071;-65
2021/01/05 09:18:43;;;;;;;34.75;15.30;;;;;;;;;;5052681;28;20082;-65
2021/01/05 09:21:09;;;;;;;40.03;16.63;;;;;;;;;;5051216;28;20416;-66
2021/01/05 09:23:35;;;;;;;35.33;16.65;;;;;;;;;;5050130;28;20346;-64
2021/01/05 09:26:00;;;;;;;36.45;16.52;;;;;;;;;;5053447;28;20405;-64
2021/01/05 09:28:26;;;;;;;41.15;17.42;;;;;;;;;;5052813;28;20029;-65
2021/01/05 09:30:51;;;;;;;41.05;17.67;;;;;;;;;;5052898;28;20027;-65
2021/01/05 09:33:17;;;;;;;39.13;16.15;;;;;;;;;;5053771;28;20071;-66
2021/01/05 09:35:42;;;;;;;39.67;16.75;;;;;;;;;;5052891;28;20053;-65
2021/01/05 09:38:10;;;;;;;36.88;17.50;;;;;;;;;;5052634;28;20063;-65
2021/01/05 09:40:36;;;;;;;38.92;17.63;;;;;;;;;;5051003;28;20103;-66
2021/01/05 09:43:02;;;;;;;41.50;17.35;;;;;;;;;;5052683;28;20100;-65
2021/01/05 09:45:27;;;;;;;39.65;16.88;;;;;;;;;;5050930;28;20028;-65
2021/01/05 09:48:03;;;;;;;39.88;17.40;;;;;;;;;;5052764;28;20439;-66
2021/01/05 09:50:28;;;;;;;41.30;17.40;;;;;;;;;;5046872;28;20021;-65
2021/01/05 09:52:53;;;;;;;45.20;19.60;;;;;;;;;;5052857;28;20021;-65
2021/01/05 09:55:18;;;;;;;42.80;18.05;;;;;;;;;;5052613;28;20099;-65
2021/01/05 09:57:43;;;;;;;41.70;17.15;;;;;;;;;;5052730;28;21801;-65
2021/01/05 10:00:09;;;;;;;36.97;17.30;;;;;;;;;;5052924;28;20017;-66
2021/01/05 10:02:34;;;;;;;38.42;16.63;;;;;;;;;;5051654;28;20044;-66
2021/01/05 10:04:59;;;;;;;44.03;17.60;;;;;;;;;;5052233;28;20397;-65
2021/01/05 10:07:24;;;;;;;38.13;18.35;;;;;;;;;;5051506;28;20271;-66
2021/01/05 10:09:50;;;;;;;44.10;18.20;;;;;;;;;;5052426;28;20121;-65
2021/01/05 10:12:15;;;;;;;43.92;18.65;;;;;;;;;;5051619;28;20130;-65
2021/01/05 10:14:40;;;;;;;42.95;18.55;;;;;;;;;;5052416;28;20009;-64
2021/01/05 10:17:05;;;;;;;47.80;17.30;;;;;;;;;;5052006;28;20021;-66
2021/01/05 10:19:30;;;;;;;43.80;17.75;;;;;;;;;;5052608;28;20615;-64
2021/01/05 10:21:56;;;;;;;45.30;18.35;;;;;;;;;;5051665;28;20021;-65
2021/01/05 10:24:21;;;;;;;43.70;19.33;;;;;;;;;;5052119;28;20068;-64
2021/01/05 10:26:50;;;;;;;41.67;18.00;;;;;;;;;;5052327;28;20024;-65
2021/01/05 10:29:15;;;;;;;44.17;19.05;;;;;;;;;;5051809;28;20035;-64
2021/01/05 10:31:44;;;;;;;42.47;18.55;;;;;;;;;;5038394;28;20022;-63
2021/01/05 10:34:11;;;;;;;45.35;19.38;;;;;;;;;;5050000;28;20071;-63
2021/01/05 10:36:36;;;;;;;41.45;19.30;;;;;;;;;;5050341;28;20025;-63
2021/01/05 10:39:02;;;;;;;48.53;19.02;;;;;;;;;;5049685;28;20087;-63
2021/01/05 10:41:31;;;;;;;40.42;17.95;;;;;;;;;;5048007;28;20028;-63
2021/01/05 10:43:56;;;;;;;38.50;17.48;;;;;;;;;;5051748;28;20459;-64
2021/01/05 10:46:21;;;;;;;47.50;20.10;;;;;;;;;;5051573;28;20115;-65
2021/01/05 10:48:46;;;;;;;39.72;16.50;;;;;;;;;;5051291;28;20290;-65
2021/01/05 10:51:11;;;;;;;41.85;17.80;;;;;;;;;;5050633;28;20091;-64
2021/01/05 10:53:36;;;;;;;37.80;17.20;;;;;;;;;;5050355;28;20029;-64
2021/01/05 10:56:02;;;;;;;37.90;16.85;;;;;;;;;;5050427;28;20256;-64
2021/01/05 10:58:27;;;;;;;41.65;17.80;;;;;;;;;;5049584;28;20056;-64
2021/01/05 11:00:52;;;;;;;40.50;18.05;;;;;;;;;;5049396;28;20048;-66
2021/01/05 11:03:17;;;;;;;45.17;18.63;;;;;;;;;;5050687;28;20108;-65
2021/01/05 11:05:42;;;;;;;41.90;17.73;;;;;;;;;;5050910;28;20047;-65
2021/01/05 11:08:08;;;;;;;39.95;17.35;;;;;;;;;;5049385;28;20291;-65
2021/01/05 11:10:33;;;;;;;43.00;17.65;;;;;;;;;;5053514;28;20146;-65
2021/01/05 11:12:59;;;;;;;40.80;17.55;;;;;;;;;;5055292;28;20025;-65
2021/01/05 11:15:24;;;;;;;43.35;17.05;;;;;;;;;;5053701;28;20100;-65
2021/01/05 11:17:49;;;;;;;38.08;16.83;;;;;;;;;;5056123;28;20021;-65
2021/01/05 11:20:15;;;;;;;38.70;16.60;;;;;;;;;;5055941;28;21635;-65
2021/01/05 11:22:40;;;;;;;36.15;16.02;;;;;;;;;;5055045;28;20036;-66
2021/01/05 11:25:06;;;;;;;37.08;16.25;;;;;;;;;;5056209;28;20025;-66
2021/01/05 11:27:31;;;;;;;39.47;16.83;;;;;;;;;;5051235;28;20382;-66
2021/01/05 11:29:56;;;;;;;36.70;17.63;;;;;;;;;;5050683;28;20134;-66
2021/01/05 11:32:23;;;;;;;40.65;16.92;;;;;;;;;;5048756;28;20025;-66
2021/01/05 11:34:48;;;;;;;44.50;19.08;;;;;;;;;;5050297;28;20032;-66
2021/01/05 11:37:18;;;;;;;41.00;18.55;;;;;;;;;;5049175;28;20005;-64
2021/01/05 11:39:46;;;;;;;39.20;18.30;;;;;;;;;;5048484;28;20052;-66
2021/01/05 11:42:12;;;;;;;42.53;18.75;;;;;;;;;;5049920;28;20590;-66
2021/01/05 11:44:38;;;;;;;44.75;19.13;;;;;;;;;;5050443;28;20027;-65
2021/01/05 11:47:03;;;;;;;40.40;16.75;;;;;;;;;;5048673;28;20051;-65
2021/01/05 11:49:28;;;;;;;47.40;18.58;;;;;;;;;;5050331;28;20029;-65
2021/01/05 11:51:54;;;;;;;43.65;17.23;;;;;;;;;;5050240;28;20032;-65
2021/01/05 11:54:20;;;;;;;43.58;17.85;;;;;;;;;;5050466;28;20489;-65
2021/01/05 11:56:46;;;;;;;41.88;19.15;;;;;;;;;;5047073;28;20029;-65
2021/01/05 11:59:12;;;;;;;43.75;19.15;;;;;;;;;;5049441;28;20025;-65
2021/01/05 12:01:37;;;;;;;45.42;19.83;;;;;;;;;;5048939;28;20100;-65
2021/01/05 12:04:03;;;;;;;48.33;20.00;;;;;;;;;;5049229;28;20120;-65
2021/01/05 12:06:28;;;;;;;48.55;20.63;;;;;;;;;;5046528;28;20059;-65
2021/01/05 12:08:54;;;;;;;45.35;18.80;;;;;;;;;;5048913;28;20132;-65
2021/01/05 12:11:23;;;;;;;46.95;19.67;;;;;;;;;;5049661;28;20468;-65
2021/01/05 12:13:49;;;;;;;43.78;17.92;;;;;;;;;;5049207;28;20033;-65
2021/01/05 12:16:29;;;;;;;41.83;17.70;;;;;;;;;;5048153;28;20087;-65
2021/01/05 12:18:55;;;;;;;;;;;;;;;;;;5049891;28;20028;-65
2021/01/05 12:21:24;;;;;;;42.45;17.02;;;;;;;;;;5049762;28;19908;-65
2021/01/05 12:23:49;;;;;;;47.70;20.45;;;;;;;;;;5049008;28;20297;-65
2021/01/05 12:26:21;;;;;;;39.88;16.25;;;;;;;;;;5047590;28;20037;-65
2021/01/05 12:28:46;;;;;;;41.92;18.58;;;;;;;;;;5044976;28;20086;-65
2021/01/05 12:31:12;;;;;;;48.20;19.60;;;;;;;;;;5048905;28;20470;-65
2021/01/05 12:33:37;;;;;;;41.97;17.33;;;;;;;;;;5048471;28;20020;-67
2021/01/05 12:36:02;;;;;;;44.13;17.43;;;;;;;;;;5048949;28;20823;-65
2021/01/05 12:38:27;;;;;;;48.40;19.67;;;;;;;;;;5048084;28;20271;-67
2021/01/05 12:40:52;;;;;;;42.13;18.02;;;;;;;;;;5049385;28;20477;-66
2021/01/05 12:43:18;;;;;;;49.75;19.83;;;;;;;;;;5048815;28;20039;-66
2021/01/05 12:45:43;;;;;;;43.47;18.10;;;;;;;;;;5048018;28;20639;-65
2021/01/05 12:48:08;;;;;;;42.53;17.95;;;;;;;;;;5047976;28;20515;-65
2021/01/05 12:50:33;;;;;;;42.00;18.98;;;;;;;;;;5054411;28;20102;-65
2021/01/05 12:52:58;;;;;;;47.50;20.42;;;;;;;;;;5046790;28;20021;-64
2021/01/05 12:55:23;;;;;;;47.92;19.38;;;;;;;;;;5044280;28;20496;-65
2021/01/05 12:57:49;;;;;;;42.87;19.47;;;;;;;;;;5056345;28;20028;-65
2021/01/05 13:00:16;;;;;;;51.00;21.00;;;;;;;;;;5049156;28;20952;-64
2021/01/05 13:02:41;;;;;;;52.80;20.63;;;;;;;;;;5055997;28;20271;-65
2021/01/05 13:05:06;;;;;;;44.40;19.65;;;;;;;;;;5050792;28;20091;-64
2021/01/05 13:07:32;;;;;;;53.33;20.35;;;;;;;;;;5047464;28;20096;-63
2021/01/05 13:09:57;;;;;;;42.67;19.27;;;;;;;;;;5052951;28;20017;-64
2021/01/05 13:12:23;;;;;;;54.75;21.13;;;;;;;;;;5043472;28;20017;-63
2021/01/05 13:14:48;;;;;;;46.08;19.65;;;;;;;;;;5047904;28;20024;-63
2021/01/05 13:17:14;;;;;;;48.20;18.77;;;;;;;;;;5051462;28;20036;-63
2021/01/05 13:19:39;;;;;;;48.60;21.15;;;;;;;;;;5054838;28;20489;-64
2021/01/05 13:22:04;;;;;;;48.15;19.30;;;;;;;;;;5050338;28;20036;-63
2021/01/05 13:24:30;;;;;;;47.13;20.33;;;;;;;;;;5049250;28;20380;-64
2021/01/05 13:26:57;;;;;;;44.22;19.17;;;;;;;;;;5040311;28;20369;-64
2021/01/05 13:29:23;;;;;;;48.58;20.25;;;;;;;;;;5042251;28;20374;-62
2021/01/05 13:31:53;;;;;;;48.70;20.10;;;;;;;;;;5052793;28;20082;-63
2021/01/05 13:34:20;;;;;;;48.03;20.30;;;;;;;;;;5042514;28;20105;-64
2021/01/05 13:36:46;;;;;;;48.40;20.63;;;;;;;;;;5053660;28;20044;-64
2021/01/05 13:39:12;;;;;;;43.60;18.98;;;;;;;;;;5044041;28;20109;-62
2021/01/05 13:41:37;;;;;;;44.55;20.20;;;;;;;;;;5048130;28;20055;-63
2021/01/05 13:44:04;;;;;;;51.15;20.60;;;;;;;;;;5049495;28;20024;-64
2021/01/05 13:46:30;;;;;;;45.60;20.13;;;;;;;;;;5047514;28;20021;-64
2021/01/05 13:48:55;;;;;;;48.00;20.40;;;;;;;;;;5047461;28;20036;-63
2021/01/05 13:51:31;;;;;;;51.10;20.17;;;;;;;;;;5046295;28;20058;-63
2021/01/05 13:53:57;;;;;;;50.80;21.13;;;;;;;;;;5051181;28;20056;-63
2021/01/05 13:56:22;;;;;;;49.90;20.65;;;;;;;;;;5051017;28;20045;-62
2021/01/05 13:58:47;;;;;;;42.33;18.45;;;;;;;;;;5050138;28;20094;-64
2021/01/05 14:01:13;;;;;;;42.47;19.10;;;;;;;;;;5055156;28;20103;-63
2021/01/05 14:03:39;;;;;;;41.28;17.27;;;;;;;;;;5049718;28;20036;-64
2021/01/05 14:06:04;;;;;;;37.58;17.58;;;;;;;;;;5052390;28;20020;-64
2021/01/05 14:08:29;;;;;;;45.42;18.77;;;;;;;;;;5056095;28;20029;-65
2021/01/05 14:10:54;;;;;;;46.00;19.60;;;;;;;;;;5052918;28;20021;-64
2021/01/05 14:13:20;;;;;;;37.72;17.40;;;;;;;;;;5048328;28;20153;-65
2021/01/05 14:15:45;;;;;;;39.83;17.42;;;;;;;;;;5056577;28;20013;-63
2021/01/05 14:18:10;;;;;;;43.63;18.23;;;;;;;;;;5050342;28;20044;-65